sensor_id;sensor_type;location;lat;lon;timestamp;pressure;altitude;pressure_sealevel;temperature;humidity
76680;BME280;65597;51.520;-0.224;2023-03-23T00:00:35;99626.25;;;8.03;52.83
76680;BME280;65597;51.520;-0.224;2023-03-23T00:03:02;99632.87;;;8.29;52.37
76680;BME280;65597;51.520;-0.224;2023-03-23T00:05:26;99625.69;;;8.18;52.63
76680;BME280;65597;51.520;-0.224;2023-03-23T00:07:51;99628.12;;;8.71;51.46
76680;BME280;65597;51.520;-0.224;2023-03-23T00:10:16;99648.54;;;8.64;51.70
76680;BME280;65597;51.520;-0.224;2023-03-23T00:12:42;99648.65;;;8.67;51.14
76680;BME280;65597;51.520;-0.224;2023-03-23T00:15:09;99653.66;;;8.65;51.12
76680;BME280;65597;51.520;-0.224;2023-03-23T00:17:33;99650.54;;;8.45;51.18
76680;BME280;65597;51.520;-0.224;2023-03-23T00:19:58;99644.86;;;8.16;51.92
76680;BME280;65597;51.520;-0.224;2023-03-23T00:22:23;99644.21;;;8.35;51.75
76680;BME280;65597;51.520;-0.224;2023-03-23T00:24:49;99653.33;;;7.95;51.48
76680;BME280;65597;51.520;-0.224;2023-03-23T00:27:16;99662.21;;;7.84;51.22
76680;BME280;65597;51.520;-0.224;2023-03-23T00:29:40;99665.05;;;8.04;51.40
76680;BME280;65597;51.520;-0.224;2023-03-23T00:32:06;99644.72;;;7.75;51.80
76680;BME280;65597;51.520;-0.224;2023-03-23T00:34:30;99665.56;;;8.24;51.48
76680;BME280;65597;51.520;-0.224;2023-03-23T00:36:55;99654.33;;;8.21;51.04
76680;BME280;65597;51.520;-0.224;2023-03-23T00:39:21;99664.13;;;8.45;50.69
76680;BME280;65597;51.520;-0.224;2023-03-23T00:41:47;99675.27;;;7.94;51.30
76680;BME280;65597;51.520;-0.224;2023-03-23T00:44:13;99669.22;;;8.23;50.95
76680;BME280;65597;51.520;-0.224;2023-03-23T00:46:37;99671.99;;;8.53;51.16
76680;BME280;65597;51.520;-0.224;2023-03-23T00:49:03;99673.73;;;8.39;50.47
76680;BME280;65597;51.520;-0.224;2023-03-23T00:51:30;99685.37;;;8.91;49.72
76680;BME280;65597;51.520;-0.224;2023-03-23T00:53:54;99682.02;;;8.29;50.29
76680;BME280;65597;51.520;-0.224;2023-03-23T00:56:19;99695.25;;;8.08;51.01
76680;BME280;65597;51.520;-0.224;2023-03-23T00:58:44;99688.44;;;8.52;50.54
76680;BME280;65597;51.520;-0.224;2023-03-23T01:01:10;99684.71;;;8.61;49.93
76680;BME280;65597;51.520;-0.224;2023-03-23T01:03:36;99691.30;;;8.39;50.60
76680;BME280;65597;51.520;-0.224;2023-03-23T01:06:05;99691.76;;;8.53;50.03
76680;BME280;65597;51.520;-0.224;2023-03-23T01:08:26;99687.05;;;7.76;50.47
76680;BME280;65597;51.520;-0.224;2023-03-23T01:11:01;99696.65;;;8.59;49.50
76680;BME280;65597;51.520;-0.224;2023-03-23T01:13:18;99690.93;;;8.34;49.40
76680;BME280;65597;51.520;-0.224;2023-03-23T01:15:43;99711.10;;;8.32;49.43
76680;BME280;65597;51.520;-0.224;2023-03-23T01:18:09;99697.91;;;8.73;48.61
76680;BME280;65597;51.520;-0.224;2023-03-23T01:20:35;99700.30;;;8.20;49.00
76680;BME280;65597;51.520;-0.224;2023-03-23T01:22:59;99699.60;;;8.66;48.71
76680;BME280;65597;51.520;-0.224;2023-03-23T01:25:25;99700.04;;;8.61;49.00
76680;BME280;65597;51.520;-0.224;2023-03-23T01:27:52;99703.78;;;8.58;48.84
76680;BME280;65597;51.520;-0.224;2023-03-23T01:30:16;99705.66;;;8.61;48.68
76680;BME280;65597;51.520;-0.224;2023-03-23T01:32:41;99713.75;;;8.88;47.80
76680;BME280;65597;51.520;-0.224;2023-03-23T01:35:07;99717.42;;;8.92;47.65
76680;BME280;65597;51.520;-0.224;2023-03-23T01:37:32;99713.73;;;8.20;48.76
76680;BME280;65597;51.520;-0.224;2023-03-23T01:39:58;99718.18;;;7.70;49.47
76680;BME280;65597;51.520;-0.224;2023-03-23T01:42:23;99727.54;;;8.39;48.32
76680;BME280;65597;51.520;-0.224;2023-03-23T01:47:13;99724.12;;;9.11;47.42
76680;BME280;65597;51.520;-0.224;2023-03-23T01:49:42;99727.36;;;8.93;47.30
76680;BME280;65597;51.520;-0.224;2023-03-23T01:52:06;99723.60;;;9.33;47.08
76680;BME280;65597;51.520;-0.224;2023-03-23T01:54:29;99732.06;;;8.82;47.48
76680;BME280;65597;51.520;-0.224;2023-03-23T01:56:59;99734.84;;;8.59;47.71
76680;BME280;65597;51.520;-0.224;2023-03-23T01:59:21;99732.24;;;8.95;47.68
76680;BME280;65597;51.520;-0.224;2023-03-23T02:01:46;99734.57;;;8.61;47.65
76680;BME280;65597;51.520;-0.224;2023-03-23T02:04:13;99746.59;;;8.50;48.30
76680;BME280;65597;51.520;-0.224;2023-03-23T02:06:36;99736.42;;;8.08;48.53
76680;BME280;65597;51.520;-0.224;2023-03-23T02:09:02;99733.00;;;8.76;47.61
76680;BME280;65597;51.520;-0.224;2023-03-23T02:11:27;99733.40;;;8.79;47.60
76680;BME280;65597;51.520;-0.224;2023-03-23T02:13:53;99729.63;;;8.59;47.67
76680;BME280;65597;51.520;-0.224;2023-03-23T02:16:27;99733.08;;;8.53;47.87
76680;BME280;65597;51.520;-0.224;2023-03-23T02:18:52;99727.15;;;8.80;47.01
76680;BME280;65597;51.520;-0.224;2023-03-23T02:21:20;99730.23;;;8.52;47.31
76680;BME280;65597;51.520;-0.224;2023-03-23T02:23:50;99729.91;;;8.29;48.17
76680;BME280;65597;51.520;-0.224;2023-03-23T02:26:08;99731.02;;;8.83;47.04
76680;BME280;65597;51.520;-0.224;2023-03-23T02:28:36;99743.18;;;8.69;46.81
76680;BME280;65597;51.520;-0.224;2023-03-23T02:31:06;99735.86;;;7.93;48.30
76680;BME280;65597;51.520;-0.224;2023-03-23T02:33:35;99738.28;;;8.52;47.34
76680;BME280;65597;51.520;-0.224;2023-03-23T02:35:44;99738.63;;;8.27;47.44
76680;BME280;65597;51.520;-0.224;2023-03-23T02:38:11;99738.79;;;8.54;46.72
76680;BME280;65597;51.520;-0.224;2023-03-23T02:40:38;99737.25;;;8.73;46.61
76680;BME280;65597;51.520;-0.224;2023-03-23T02:42:57;99737.42;;;8.60;46.62
76680;BME280;65597;51.520;-0.224;2023-03-23T02:45:24;99734.70;;;8.92;46.70
76680;BME280;65597;51.520;-0.224;2023-03-23T02:47:50;99743.45;;;8.78;46.77
76680;BME280;65597;51.520;-0.224;2023-03-23T02:50:15;99744.34;;;8.78;46.43
76680;BME280;65597;51.520;-0.224;2023-03-23T02:52:40;99748.64;;;8.12;47.80
76680;BME280;65597;51.520;-0.224;2023-03-23T02:55:04;99744.13;;;8.64;47.49
76680;BME280;65597;51.520;-0.224;2023-03-23T02:57:30;99751.97;;;8.49;47.10
76680;BME280;65597;51.520;-0.224;2023-03-23T02:59:54;99751.52;;;8.40;47.35
76680;BME280;65597;51.520;-0.224;2023-03-23T03:02:22;99749.08;;;8.55;47.05
76680;BME280;65597;51.520;-0.224;2023-03-23T03:04:51;99743.66;;;8.55;47.15
76680;BME280;65597;51.520;-0.224;2023-03-23T03:07:23;99749.36;;;8.86;46.56
76680;BME280;65597;51.520;-0.224;2023-03-23T03:09:42;99748.37;;;8.49;47.03
76680;BME280;65597;51.520;-0.224;2023-03-23T03:12:05;99746.74;;;9.12;46.55
76680;BME280;65597;51.520;-0.224;2023-03-23T03:14:29;99753.52;;;8.66;46.50
76680;BME280;65597;51.520;-0.224;2023-03-23T03:16:58;99756.45;;;8.73;46.75
76680;BME280;65597;51.520;-0.224;2023-03-23T03:19:20;99751.34;;;8.68;46.94
76680;BME280;65597;51.520;-0.224;2023-03-23T03:21:46;99750.43;;;8.26;47.88
76680;BME280;65597;51.520;-0.224;2023-03-23T03:24:11;99752.40;;;8.43;47.75
76680;BME280;65597;51.520;-0.224;2023-03-23T03:26:35;99751.09;;;8.20;48.56
76680;BME280;65597;51.520;-0.224;2023-03-23T03:29:01;99752.12;;;8.58;47.56
76680;BME280;65597;51.520;-0.224;2023-03-23T03:31:28;99761.42;;;8.75;47.11
76680;BME280;65597;51.520;-0.224;2023-03-23T03:33:51;99767.78;;;8.84;47.27
76680;BME280;65597;51.520;-0.224;2023-03-23T03:36:18;99761.19;;;8.58;47.75
76680;BME280;65597;51.520;-0.224;2023-03-23T03:38:42;99758.89;;;8.48;47.60
76680;BME280;65597;51.520;-0.224;2023-03-23T03:41:07;99759.89;;;8.36;47.97
76680;BME280;65597;51.520;-0.224;2023-03-23T03:43:32;99768.29;;;8.21;47.59
76680;BME280;65597;51.520;-0.224;2023-03-23T03:45:58;99763.52;;;8.83;47.39
76680;BME280;65597;51.520;-0.224;2023-03-23T03:48:23;99767.33;;;8.89;46.73
76680;BME280;65597;51.520;-0.224;2023-03-23T03:50:49;99765.19;;;8.15;47.89
76680;BME280;65597;51.520;-0.224;2023-03-23T03:53:15;99773.72;;;8.36;47.72
76680;BME280;65597;51.520;-0.224;2023-03-23T03:55:39;99779.16;;;8.64;47.31
76680;BME280;65597;51.520;-0.224;2023-03-23T03:58:05;99777.97;;;8.24;47.20
76680;BME280;65597;51.520;-0.224;2023-03-23T04:00:30;99774.66;;;8.43;47.88
76680;BME280;65597;51.520;-0.224;2023-03-23T04:02:55;99775.41;;;8.42;47.39
76680;BME280;65597;51.520;-0.224;2023-03-23T04:05:22;99776.16;;;8.32;47.36
76680;BME280;65597;51.520;-0.224;2023-03-23T04:07:46;99776.25;;;8.87;47.03
76680;BME280;65597;51.520;-0.224;2023-03-23T04:10:12;99778.43;;;8.62;47.00
76680;BME280;65597;51.520;-0.224;2023-03-23T04:12:37;99784.29;;;8.49;47.78
76680;BME280;65597;51.520;-0.224;2023-03-23T04:15:03;99783.62;;;8.64;47.51
76680;BME280;65597;51.520;-0.224;2023-03-23T04:17:27;99783.88;;;8.25;47.65
76680;BME280;65597;51.520;-0.224;2023-03-23T04:19:53;99790.18;;;8.41;47.46
76680;BME280;65597;51.520;-0.224;2023-03-23T04:22:18;99796.74;;;8.49;47.75
76680;BME280;65597;51.520;-0.224;2023-03-23T04:24:43;99794.40;;;8.63;47.05
76680;BME280;65597;51.520;-0.224;2023-03-23T04:27:09;99796.39;;;8.78;46.62
76680;BME280;65597;51.520;-0.224;2023-03-23T04:29:34;99798.64;;;8.72;46.28
76680;BME280;65597;51.520;-0.224;2023-03-23T04:31:59;99803.42;;;7.78;47.78
76680;BME280;65597;51.520;-0.224;2023-03-23T04:34:25;99802.42;;;8.66;47.09
76680;BME280;65597;51.520;-0.224;2023-03-23T04:36:50;99801.23;;;8.52;46.80
76680;BME280;65597;51.520;-0.224;2023-03-23T04:39:15;99813.64;;;8.81;46.50
76680;BME280;65597;51.520;-0.224;2023-03-23T04:41:42;99809.13;;;8.61;46.47
76680;BME280;65597;51.520;-0.224;2023-03-23T04:44:06;99815.63;;;8.44;47.16
76680;BME280;65597;51.520;-0.224;2023-03-23T04:46:31;99811.33;;;8.58;46.62
76680;BME280;65597;51.520;-0.224;2023-03-23T04:48:57;99811.41;;;8.70;46.41
76680;BME280;65597;51.520;-0.224;2023-03-23T04:51:22;99808.41;;;8.95;46.34
76680;BME280;65597;51.520;-0.224;2023-03-23T04:53:49;99814.66;;;9.09;45.95
76680;BME280;65597;51.520;-0.224;2023-03-23T04:56:13;99817.04;;;9.29;45.80
76680;BME280;65597;51.520;-0.224;2023-03-23T04:58:39;99818.93;;;8.88;46.20
76680;BME280;65597;51.520;-0.224;2023-03-23T05:01:04;99822.57;;;8.98;46.06
76680;BME280;65597;51.520;-0.224;2023-03-23T05:03:29;99820.06;;;8.72;45.89
76680;BME280;65597;51.520;-0.224;2023-03-23T05:05:55;99816.46;;;8.82;46.33
76680;BME280;65597;51.520;-0.224;2023-03-23T05:08:20;99816.54;;;8.91;46.63
76680;BME280;65597;51.520;-0.224;2023-03-23T05:10:50;99815.51;;;9.04;46.48
76680;BME280;65597;51.520;-0.224;2023-03-23T05:13:10;99818.22;;;9.02;46.63
76680;BME280;65597;51.520;-0.224;2023-03-23T05:15:35;99822.79;;;8.77;46.69
76680;BME280;65597;51.520;-0.224;2023-03-23T05:18:02;99826.66;;;8.25;47.78
76680;BME280;65597;51.520;-0.224;2023-03-23T05:20:26;99826.65;;;8.28;48.03
76680;BME280;65597;51.520;-0.224;2023-03-23T05:22:52;99834.25;;;8.62;47.65
76680;BME280;65597;51.520;-0.224;2023-03-23T05:25:18;99838.93;;;8.59;47.87
76680;BME280;65597;51.520;-0.224;2023-03-23T05:27:42;99840.53;;;8.79;47.62
76680;BME280;65597;51.520;-0.224;2023-03-23T05:30:08;99836.02;;;8.38;48.01
76680;BME280;65597;51.520;-0.224;2023-03-23T05:32:33;99836.51;;;8.62;48.05
76680;BME280;65597;51.520;-0.224;2023-03-23T05:34:59;99837.70;;;8.67;48.00
76680;BME280;65597;51.520;-0.224;2023-03-23T05:37:24;99832.54;;;8.95;47.60
76680;BME280;65597;51.520;-0.224;2023-03-23T05:39:49;99830.37;;;8.77;47.52
76680;BME280;65597;51.520;-0.224;2023-03-23T05:42:16;99830.60;;;8.71;47.62
76680;BME280;65597;51.520;-0.224;2023-03-23T05:44:40;99834.84;;;8.67;48.09
76680;BME280;65597;51.520;-0.224;2023-03-23T05:47:06;99834.59;;;8.22;48.47
76680;BME280;65597;51.520;-0.224;2023-03-23T05:49:31;99823.58;;;8.04;49.29
76680;BME280;65597;51.520;-0.224;2023-03-23T05:51:56;99827.81;;;8.07;48.97
76680;BME280;65597;51.520;-0.224;2023-03-23T05:54:22;99830.11;;;8.11;49.02
76680;BME280;65597;51.520;-0.224;2023-03-23T05:56:47;99823.98;;;7.82;49.38
76680;BME280;65597;51.520;-0.224;2023-03-23T05:59:12;99838.74;;;8.17;49.20
76680;BME280;65597;51.520;-0.224;2023-03-23T06:01:38;99826.81;;;7.49;50.14
76680;BME280;65597;51.520;-0.224;2023-03-23T06:04:03;99824.53;;;7.62;49.86
76680;BME280;65597;51.520;-0.224;2023-03-23T06:06:34;99818.62;;;7.26;50.43
76680;BME280;65597;51.520;-0.224;2023-03-23T06:08:55;99815.40;;;7.43;50.12
76680;BME280;65597;51.520;-0.224;2023-03-23T06:11:20;99815.47;;;7.46;49.84
76680;BME280;65597;51.520;-0.224;2023-03-23T06:13:45;99820.06;;;7.55;50.04
76680;BME280;65597;51.520;-0.224;2023-03-23T06:16:11;99821.40;;;7.96;49.49
76680;BME280;65597;51.520;-0.224;2023-03-23T06:18:36;99811.45;;;8.09;49.24
76680;BME280;65597;51.520;-0.224;2023-03-23T06:21:02;99811.94;;;7.98;49.02
76680;BME280;65597;51.520;-0.224;2023-03-23T06:23:27;99818.92;;;7.92;49.47
76680;BME280;65597;51.520;-0.224;2023-03-23T06:25:53;99818.58;;;7.94;49.06
76680;BME280;65597;51.520;-0.224;2023-03-23T06:28:18;99821.18;;;7.48;50.53
76680;BME280;65597;51.520;-0.224;2023-03-23T06:30:44;99828.85;;;7.75;49.61
76680;BME280;65597;51.520;-0.224;2023-03-23T06:33:09;99824.14;;;7.98;49.17
76680;BME280;65597;51.520;-0.224;2023-03-23T06:35:34;99823.53;;;8.06;49.07
76680;BME280;65597;51.520;-0.224;2023-03-23T06:37:59;99828.26;;;7.93;49.30
76680;BME280;65597;51.520;-0.224;2023-03-23T06:40:25;99823.62;;;8.17;49.04
76680;BME280;65597;51.520;-0.224;2023-03-23T06:42:52;99825.88;;;8.12;49.21
76680;BME280;65597;51.520;-0.224;2023-03-23T06:45:16;99826.49;;;8.01;49.56
76680;BME280;65597;51.520;-0.224;2023-03-23T06:47:41;99819.14;;;8.00;49.81
76680;BME280;65597;51.520;-0.224;2023-03-23T06:50:08;99823.19;;;7.38;51.21
76680;BME280;65597;51.520;-0.224;2023-03-23T06:52:32;99824.17;;;7.97;50.92
76680;BME280;65597;51.520;-0.224;2023-03-23T06:54:58;99834.32;;;7.90;51.35
76680;BME280;65597;51.520;-0.224;2023-03-23T06:57:23;99821.76;;;7.77;51.34
76680;BME280;65597;51.520;-0.224;2023-03-23T06:59:49;99825.62;;;7.53;51.98
76680;BME280;65597;51.520;-0.224;2023-03-23T07:02:15;99825.55;;;7.45;52.29
76680;BME280;65597;51.520;-0.224;2023-03-23T07:04:41;99821.21;;;7.86;51.55
76680;BME280;65597;51.520;-0.224;2023-03-23T07:07:07;99820.79;;;7.73;51.88
76680;BME280;65597;51.520;-0.224;2023-03-23T07:09:31;99822.88;;;7.87;52.36
76680;BME280;65597;51.520;-0.224;2023-03-23T07:11:56;99815.49;;;7.91;51.80
76680;BME280;65597;51.520;-0.224;2023-03-23T07:14:22;99811.67;;;8.13;50.96
76680;BME280;65597;51.520;-0.224;2023-03-23T07:16:47;99799.84;;;8.76;50.25
76680;BME280;65597;51.520;-0.224;2023-03-23T07:19:13;99803.52;;;8.93;49.96
76680;BME280;65597;51.520;-0.224;2023-03-23T07:21:38;99796.17;;;8.29;50.64
76680;BME280;65597;51.520;-0.224;2023-03-23T07:24:04;99800.88;;;8.39;50.51
76680;BME280;65597;51.520;-0.224;2023-03-23T07:26:29;99796.55;;;8.71;50.27
76680;BME280;65597;51.520;-0.224;2023-03-23T07:28:55;99802.40;;;8.47;50.77
76680;BME280;65597;51.520;-0.224;2023-03-23T07:31:22;99794.34;;;8.58;50.31
76680;BME280;65597;51.520;-0.224;2023-03-23T07:33:46;99801.16;;;8.77;50.34
76680;BME280;65597;51.520;-0.224;2023-03-23T07:36:12;99807.99;;;8.42;50.59
76680;BME280;65597;51.520;-0.224;2023-03-23T07:38:37;99798.27;;;8.37;50.40
76680;BME280;65597;51.520;-0.224;2023-03-23T07:41:04;99804.24;;;8.31;50.71
76680;BME280;65597;51.520;-0.224;2023-03-23T07:43:28;99803.17;;;7.94;51.98
76680;BME280;65597;51.520;-0.224;2023-03-23T07:45:54;99821.27;;;7.87;52.23
76680;BME280;65597;51.520;-0.224;2023-03-23T07:48:19;99816.67;;;7.79;52.13
76680;BME280;65597;51.520;-0.224;2023-03-23T07:50:44;99807.76;;;7.84;51.67
76680;BME280;65597;51.520;-0.224;2023-03-23T07:53:09;99812.72;;;8.14;51.65
76680;BME280;65597;51.520;-0.224;2023-03-23T07:55:35;99812.89;;;7.94;52.17
76680;BME280;65597;51.520;-0.224;2023-03-23T07:58:00;99814.90;;;7.95;51.97
76680;BME280;65597;51.520;-0.224;2023-03-23T08:00:25;99814.05;;;7.35;52.66
76680;BME280;65597;51.520;-0.224;2023-03-23T08:02:52;99830.23;;;7.86;52.06
76680;BME280;65597;51.520;-0.224;2023-03-23T08:05:17;99825.06;;;7.51;51.90
76680;BME280;65597;51.520;-0.224;2023-03-23T08:07:41;99823.66;;;7.25;52.37
76680;BME280;65597;51.520;-0.224;2023-03-23T08:10:08;99825.81;;;8.00;51.25
76680;BME280;65597;51.520;-0.224;2023-03-23T08:12:32;99826.62;;;8.15;51.00
76680;BME280;65597;51.520;-0.224;2023-03-23T08:14:57;99837.88;;;7.54;51.87
76680;BME280;65597;51.520;-0.224;2023-03-23T08:17:22;99844.73;;;7.52;51.43
76680;BME280;65597;51.520;-0.224;2023-03-23T08:19:47;99847.27;;;7.74;51.48
76680;BME280;65597;51.520;-0.224;2023-03-23T08:22:12;99838.00;;;8.10;50.43
76680;BME280;65597;51.520;-0.224;2023-03-23T08:24:38;99834.87;;;8.24;49.98
76680;BME280;65597;51.520;-0.224;2023-03-23T08:27:03;99855.34;;;8.11;49.94
76680;BME280;65597;51.520;-0.224;2023-03-23T08:29:28;99837.99;;;7.97;50.06
76680;BME280;65597;51.520;-0.224;2023-03-23T08:31:57;99841.82;;;7.76;49.75
76680;BME280;65597;51.520;-0.224;2023-03-23T08:34:20;99847.80;;;8.32;49.33
76680;BME280;65597;51.520;-0.224;2023-03-23T08:36:44;99852.93;;;8.04;49.44
76680;BME280;65597;51.520;-0.224;2023-03-23T08:39:10;99858.46;;;8.15;49.41
76680;BME280;65597;51.520;-0.224;2023-03-23T08:41:35;99851.42;;;7.96;49.82
76680;BME280;65597;51.520;-0.224;2023-03-23T08:44:01;99849.05;;;7.81;49.77
76680;BME280;65597;51.520;-0.224;2023-03-23T08:46:26;99849.75;;;8.17;49.44
76680;BME280;65597;51.520;-0.224;2023-03-23T08:48:51;99844.91;;;8.34;49.04
76680;BME280;65597;51.520;-0.224;2023-03-23T08:51:16;99844.40;;;8.22;48.72
76680;BME280;65597;51.520;-0.224;2023-03-23T08:53:42;99853.45;;;8.50;47.90
76680;BME280;65597;51.520;-0.224;2023-03-23T08:56:10;99843.76;;;8.28;47.99
76680;BME280;65597;51.520;-0.224;2023-03-23T08:58:33;99847.83;;;8.55;47.81
76680;BME280;65597;51.520;-0.224;2023-03-23T09:00:58;99836.08;;;8.60;47.91
76680;BME280;65597;51.520;-0.224;2023-03-23T09:03:23;99844.80;;;8.56;48.40
76680;BME280;65597;51.520;-0.224;2023-03-23T09:05:49;99848.26;;;8.67;47.97
76680;BME280;65597;51.520;-0.224;2023-03-23T09:08:14;99847.34;;;8.77;47.86
76680;BME280;65597;51.520;-0.224;2023-03-23T09:10:40;99860.73;;;8.39;48.26
76680;BME280;65597;51.520;-0.224;2023-03-23T09:13:05;99850.84;;;8.30;48.71
76680;BME280;65597;51.520;-0.224;2023-03-23T09:15:31;99855.09;;;8.56;48.57
76680;BME280;65597;51.520;-0.224;2023-03-23T09:17:56;99850.38;;;8.65;48.35
76680;BME280;65597;51.520;-0.224;2023-03-23T09:20:26;99852.44;;;8.39;48.86
76680;BME280;65597;51.520;-0.224;2023-03-23T09:22:48;99847.32;;;8.65;48.34
76680;BME280;65597;51.520;-0.224;2023-03-23T09:25:14;99851.20;;;8.38;49.14
76680;BME280;65597;51.520;-0.224;2023-03-23T09:27:38;99857.83;;;8.29;49.33
76680;BME280;65597;51.520;-0.224;2023-03-23T09:30:03;99839.19;;;8.76;48.31
76680;BME280;65597;51.520;-0.224;2023-03-23T09:32:30;99852.46;;;9.01;47.95
76680;BME280;65597;51.520;-0.224;2023-03-23T09:34:54;99846.97;;;8.85;48.64
76680;BME280;65597;51.520;-0.224;2023-03-23T09:37:19;99846.93;;;8.47;48.45
76680;BME280;65597;51.520;-0.224;2023-03-23T09:39:45;99850.09;;;8.40;48.28
76680;BME280;65597;51.520;-0.224;2023-03-23T09:42:18;99836.66;;;8.44;48.90
76680;BME280;65597;51.520;-0.224;2023-03-23T09:44:45;99833.54;;;8.42;48.19
76680;BME280;65597;51.520;-0.224;2023-03-23T09:47:06;99857.40;;;8.82;47.48
76680;BME280;65597;51.520;-0.224;2023-03-23T09:49:29;99846.40;;;8.76;47.50
76680;BME280;65597;51.520;-0.224;2023-03-23T09:51:54;99840.73;;;8.48;48.32
76680;BME280;65597;51.520;-0.224;2023-03-23T09:54:20;99830.53;;;8.57;48.07
76680;BME280;65597;51.520;-0.224;2023-03-23T09:56:42;99829.70;;;8.81;48.00
76680;BME280;65597;51.520;-0.224;2023-03-23T09:59:13;99845.73;;;8.35;48.48
76680;BME280;65597;51.520;-0.224;2023-03-23T10:01:35;99849.86;;;9.05;47.83
76680;BME280;65597;51.520;-0.224;2023-03-23T10:04:01;99841.38;;;9.14;47.30
76680;BME280;65597;51.520;-0.224;2023-03-23T10:06:23;99836.65;;;8.69;46.91
76680;BME280;65597;51.520;-0.224;2023-03-23T10:08:51;99843.53;;;8.78;46.40
76680;BME280;65597;51.520;-0.224;2023-03-23T10:11:21;99843.47;;;8.45;46.49
76680;BME280;65597;51.520;-0.224;2023-03-23T10:13:49;99839.03;;;8.25;46.46
76680;BME280;65597;51.520;-0.224;2023-03-23T10:16:14;99832.83;;;8.80;45.90
76680;BME280;65597;51.520;-0.224;2023-03-23T10:18:36;99847.44;;;8.84;44.81
76680;BME280;65597;51.520;-0.224;2023-03-23T10:20:58;99839.81;;;9.18;44.33
76680;BME280;65597;51.520;-0.224;2023-03-23T10:23:35;99839.24;;;8.98;44.50
76680;BME280;65597;51.520;-0.224;2023-03-23T10:25:48;99852.64;;;8.84;44.31
76680;BME280;65597;51.520;-0.224;2023-03-23T10:28:12;99871.34;;;8.96;43.92
76680;BME280;65597;51.520;-0.224;2023-03-23T10:30:39;99856.12;;;9.06;43.85
76680;BME280;65597;51.520;-0.224;2023-03-23T10:33:04;99856.44;;;8.80;43.83
76680;BME280;65597;51.520;-0.224;2023-03-23T10:35:31;99873.01;;;9.02;43.93
76680;BME280;65597;51.520;-0.224;2023-03-23T10:37:55;99875.30;;;8.56;45.13
76680;BME280;65597;51.520;-0.224;2023-03-23T10:40:20;99868.40;;;8.81;44.95
76680;BME280;65597;51.520;-0.224;2023-03-23T10:42:44;99870.19;;;8.52;45.45
76680;BME280;65597;51.520;-0.224;2023-03-23T10:45:15;99872.55;;;8.71;44.85
76680;BME280;65597;51.520;-0.224;2023-03-23T10:47:36;99878.95;;;8.84;44.43
76680;BME280;65597;51.520;-0.224;2023-03-23T10:50:02;99865.02;;;8.71;44.77
76680;BME280;65597;51.520;-0.224;2023-03-23T10:52:30;99858.11;;;9.03;44.28
76680;BME280;65597;51.520;-0.224;2023-03-23T10:54:54;99868.86;;;9.07;44.75
76680;BME280;65597;51.520;-0.224;2023-03-23T10:57:22;99851.65;;;8.98;45.27
76680;BME280;65597;51.520;-0.224;2023-03-23T10:59:41;99866.97;;;9.41;45.26
76680;BME280;65597;51.520;-0.224;2023-03-23T11:02:14;99851.95;;;9.10;44.85
76680;BME280;65597;51.520;-0.224;2023-03-23T11:04:32;99851.18;;;9.73;44.64
76680;BME280;65597;51.520;-0.224;2023-03-23T11:06:59;99850.93;;;9.56;45.09
76680;BME280;65597;51.520;-0.224;2023-03-23T11:09:34;99849.17;;;9.59;44.82
76680;BME280;65597;51.520;-0.224;2023-03-23T11:11:50;99864.88;;;9.16;45.32
76680;BME280;65597;51.520;-0.224;2023-03-23T11:14:16;99875.69;;;9.06;46.07
76680;BME280;65597;51.520;-0.224;2023-03-23T11:16:43;99846.77;;;9.53;45.76
76680;BME280;65597;51.520;-0.224;2023-03-23T11:19:12;99885.78;;;9.13;46.17
76680;BME280;65597;51.520;-0.224;2023-03-23T11:21:31;99878.25;;;8.72;47.02
76680;BME280;65597;51.520;-0.224;2023-03-23T11:23:56;99853.46;;;8.98;46.53
76680;BME280;65597;51.520;-0.224;2023-03-23T11:26:23;99850.23;;;9.57;45.61
76680;BME280;65597;51.520;-0.224;2023-03-23T11:28:46;99866.06;;;9.98;46.40
76680;BME280;65597;51.520;-0.224;2023-03-23T11:31:10;99878.33;;;8.97;47.29
76680;BME280;65597;51.520;-0.224;2023-03-23T11:33:46;99857.96;;;9.43;46.68
76680;BME280;65597;51.520;-0.224;2023-03-23T11:36:00;99867.24;;;9.39;46.93
76680;BME280;65597;51.520;-0.224;2023-03-23T11:38:25;99856.72;;;9.70;46.60
76680;BME280;65597;51.520;-0.224;2023-03-23T11:40:51;99842.33;;;9.41;46.96
76680;BME280;65597;51.520;-0.224;2023-03-23T11:43:20;99861.98;;;9.48;47.20
76680;BME280;65597;51.520;-0.224;2023-03-23T11:45:48;99844.51;;;9.85;46.36
76680;BME280;65597;51.520;-0.224;2023-03-23T11:48:15;99845.95;;;9.71;46.51
76680;BME280;65597;51.520;-0.224;2023-03-23T11:50:35;99847.06;;;9.49;46.69
76680;BME280;65597;51.520;-0.224;2023-03-23T11:53:01;99849.56;;;9.33;46.47
76680;BME280;65597;51.520;-0.224;2023-03-23T11:55:25;99859.17;;;9.69;46.23
76680;BME280;65597;51.520;-0.224;2023-03-23T11:57:47;99845.47;;;9.32;46.49
76680;BME280;65597;51.520;-0.224;2023-03-23T12:00:15;99850.93;;;9.44;45.93
76680;BME280;65597;51.520;-0.224;2023-03-23T12:02:49;99862.04;;;9.67;45.95
76680;BME280;65597;51.520;-0.224;2023-03-23T12:07:40;99836.00;;;9.49;46.31
76680;BME280;65597;51.520;-0.224;2023-03-23T12:10:02;99837.84;;;9.51;46.51
76680;BME280;65597;51.520;-0.224;2023-03-23T12:12:39;99826.30;;;9.71;44.83
76680;BME280;65597;51.520;-0.224;2023-03-23T12:14:53;99828.94;;;10.11;44.29
76680;BME280;65597;51.520;-0.224;2023-03-23T12:17:19;99833.04;;;10.32;44.17
76680;BME280;65597;51.520;-0.224;2023-03-23T12:19:42;99822.98;;;10.51;43.52
76680;BME280;65597;51.520;-0.224;2023-03-23T12:22:09;99828.41;;;11.14;42.54
76680;BME280;65597;51.520;-0.224;2023-03-23T12:24:39;99814.36;;;11.19;43.48
76680;BME280;65597;51.520;-0.224;2023-03-23T12:26:56;99816.44;;;10.55;43.44
76680;BME280;65597;51.520;-0.224;2023-03-23T12:29:32;99831.88;;;10.31;43.19
76680;BME280;65597;51.520;-0.224;2023-03-23T12:31:51;99826.64;;;10.23;43.80
76680;BME280;65597;51.520;-0.224;2023-03-23T12:34:17;99837.02;;;10.42;43.43
76680;BME280;65597;51.520;-0.224;2023-03-23T12:36:44;99847.19;;;9.77;43.84
76680;BME280;65597;51.520;-0.224;2023-03-23T12:39:12;99832.07;;;10.85;42.07
76680;BME280;65597;51.520;-0.224;2023-03-23T12:41:28;99824.09;;;10.63;42.40
76680;BME280;65597;51.520;-0.224;2023-03-23T12:43:52;99833.21;;;11.07;41.78
76680;BME280;65597;51.520;-0.224;2023-03-23T12:46:34;99819.21;;;10.94;42.58
76680;BME280;65597;51.520;-0.224;2023-03-23T12:48:42;99817.11;;;10.54;41.76
76680;BME280;65597;51.520;-0.224;2023-03-23T12:51:19;99814.58;;;11.07;40.63
76680;BME280;65597;51.520;-0.224;2023-03-23T12:53:33;99791.72;;;11.35;40.21